Terminal Aerodrome Forecast
Issued by NWS Sterling, VA

Current Version | Previous Version | Graphics & Text | Print | Product List | Glossary On
Versions: 1 2 3 4 5 6 7 8 9 10 11 12 13 14 15 16 17 18 19 20 21 22 23 24 25 26 27 28
922
FTUS41 KLWX 200836 AAA
TAFDCA
TAF AMD
KDCA 200836Z 2009/2106 00000KT P6SM BKN150
     FM201300 VRB03KT 6SM -RA BR OVC050
     FM201600 14004KT 5SM -RA BR OVC030
     FM201800 15004KT 3SM -RA BR OVC015
     FM202000 15004KT 6SM -DZ BR OVC008
     FM210300 VRB03KT 6SM -DZ BR OVC003=

USA.gov is the U.S. government's official web portal to all federal, state and local government web resources and services.